Map

Track Data

SID SEASON NUMBER BASIN SUBBASIN NAME ISO_TIME NATURE LAT LON WMO_WIND WMO_PRES WMO_AGENCY TRACK_TYPE DIST2LAND LANDFALL IFLAG USA_AGENCY USA_ATCF_ID USA_LAT USA_LON USA_RECORD USA_STATUS USA_WIND USA_PRES USA_SSHS USA_R34_NE USA_R34_SE USA_R34_SW USA_R34_NW USA_R50_NE USA_R50_SE USA_R50_SW USA_R50_NW USA_R64_NE USA_R64_SE USA_R64_SW USA_R64_NW USA_POCI USA_ROCI USA_RMW USA_EYE TOKYO_LAT TOKYO_LON TOKYO_GRADE TOKYO_WIND TOKYO_PRES TOKYO_R50_DIR TOKYO_R50_LONG TOKYO_R50_SHORT TOKYO_R30_DIR TOKYO_R30_LONG TOKYO_R30_SHORT TOKYO_LAND CMA_LAT CMA_LON CMA_CAT CMA_WIND CMA_PRES HKO_LAT HKO_LON HKO_CAT HKO_WIND HKO_PRES NEWDELHI_LAT NEWDELHI_LON NEWDELHI_GRADE NEWDELHI_WIND NEWDELHI_PRES NEWDELHI_CI NEWDELHI_DP NEWDELHI_POCI REUNION_LAT REUNION_LON REUNION_TYPE REUNION_WIND REUNION_PRES REUNION_TNUM REUNION_CI REUNION_RMW REUNION_R34_NE REUNION_R34_SE REUNION_R34_SW REUNION_R34_NW REUNION_R50_NE REUNION_R50_SE REUNION_R50_SW REUNION_R50_NW REUNION_R64_NE REUNION_R64_SE REUNION_R64_SW REUNION_R64_NW BOM_LAT BOM_LON BOM_TYPE BOM_WIND BOM_PRES BOM_TNUM BOM_CI BOM_RMW BOM_R34_NE BOM_R34_SE BOM_R34_SW BOM_R34_NW BOM_R50_NE BOM_R50_SE BOM_R50_SW BOM_R50_NW BOM_R64_NE BOM_R64_SE BOM_R64_SW BOM_R64_NW BOM_ROCI BOM_POCI BOM_EYE BOM_POS_METHOD BOM_PRES_METHOD NADI_LAT NADI_LON NADI_CAT NADI_WIND NADI_PRES WELLINGTON_LAT WELLINGTON_LON WELLINGTON_WIND WELLINGTON_PRES DS824_LAT DS824_LON DS824_STAGE DS824_WIND DS824_PRES TD9636_LAT TD9636_LON TD9636_STAGE TD9636_WIND TD9636_PRES TD9635_LAT TD9635_LON TD9635_WIND TD9635_PRES TD9635_ROCI NEUMANN_LAT NEUMANN_LON NEUMANN_CLASS NEUMANN_WIND NEUMANN_PRES MLC_LAT MLC_LON MLC_CLASS MLC_WIND MLC_PRES USA_GUST BOM_GUST BOM_GUST_PER REUNION_GUST REUNION_GUST_PER USA_SEAHGT USA_SEARAD_NE USA_SEARAD_SE USA_SEARAD_SW USA_SEARAD_NW STORM_SPEED STORM_DIR
1889286N20118 1889 32 WP MM NOT_NAMED 1889-10-13 04:00:00 NR 20.3000 118.400 main 298 291 __________O___ -1 20.3000 118.400 4 2 326
1889286N20118 1889 32 WP MM NOT_NAMED 1889-10-13 06:00:00 NR 20.3565 118.357 main 291 291 __________P___ -1 20.3565 118.357 4 2 324
1889286N20118 1889 32 WP MM NOT_NAMED 1889-10-13 09:00:00 NR 20.4388 118.289 main 300 293 __________P___ -1 20.4388 118.289 4 2 320
1889286N20118 1889 32 WP MM NOT_NAMED 1889-10-13 12:00:00 NR 20.5148 118.215 main 302 297 __________P___ -1 20.5148 118.215 4 2 314
1889286N20118 1889 32 WP MM NOT_NAMED 1889-10-13 15:00:00 NR 20.5809 118.131 main 305 305 __________P___ -1 20.5809 118.131 4 2 308
1889286N20118 1889 32 WP MM NOT_NAMED 1889-10-13 16:00:00 NR 20.6000 118.100 main 305 300 __________O___ -1 20.6000 118.100 4 2 300
1889286N20118 1889 32 WP MM NOT_NAMED 1889-10-13 18:00:00 NR 20.6338 118.033 main 300 285 __________P___ -1 20.6338 118.033 4 2 295
1889286N20118 1889 32 WP MM NOT_NAMED 1889-10-13 21:00:00 NR 20.6780 117.921 main 285 280 __________P___ -1 20.6780 117.921 4 2 292
1889286N20118 1889 32 WP MM NOT_NAMED 1889-10-14 00:00:00 NR 20.7229 117.793 main 280 265 __________P___ -1 20.7229 117.793 4 3 292
1889286N20118 1889 32 WP MM NOT_NAMED 1889-10-14 03:00:00 NR 20.7778 117.651 main 265 260 __________P___ -1 20.7778 117.651 4 3 293
1889286N20118 1889 32 WP MM NOT_NAMED 1889-10-14 04:00:00 NR 20.8000 117.600 main 260 246 __________O___ -1 20.8000 117.600 4 3 300
1889286N20118 1889 32 WP MM NOT_NAMED 1889-10-14 06:00:00 NR 20.8578 117.503 main 246 227 __________P___ -1 20.8578 117.503 4 3 303
1889286N20118 1889 32 WP MM NOT_NAMED 1889-10-14 09:00:00 NR 20.9572 117.344 main 227 213 __________P___ -1 20.9572 117.344 4 4 303
1889286N20118 1889 32 WP MM NOT_NAMED 1889-10-14 12:00:00 NR 21.0636 117.168 main 213 196 __________P___ -1 21.0636 117.168 4 4 301
1889286N20118 1889 32 WP MM NOT_NAMED 1889-10-14 15:00:00 NR 21.1675 116.971 main 196 194 __________P___ -1 21.1675 116.971 4 4 299
1889286N20118 1889 32 WP MM NOT_NAMED 1889-10-14 16:00:00 NR 21.2000 116.900 main 194 178 __________O___ -1 21.2000 116.900 4 5 292
1889286N20118 1889 32 WP MM NOT_NAMED 1889-10-14 18:00:00 NR 21.2531 116.748 main 178 172 __________P___ -1 21.2531 116.748 4 5 289
1889286N20118 1889 32 WP MM NOT_NAMED 1889-10-14 21:00:00 NR 21.3264 116.500 main 172 151 __________P___ -1 21.3264 116.500 4 5 287
1889286N20118 1889 32 WP MM NOT_NAMED 1889-10-15 00:00:00 NR 21.3976 116.242 main 151 135 __________P___ -1 21.3976 116.242 4 5 287
1889286N20118 1889 32 WP MM NOT_NAMED 1889-10-15 03:00:00 NR 21.4729 115.984 main 135 134 __________P___ -1 21.4729 115.984 4 5 288
1889286N20118 1889 32 WP MM NOT_NAMED 1889-10-15 04:00:00 NR 21.5000 115.900 main 134 134 __________O___ -1 21.5000 115.900 4 5 287
1889286N20118 1889 32 WP MM NOT_NAMED 1889-10-15 06:00:00 NR 21.5452 115.734 main 134 118 __________P___ -1 21.5452 115.734 4 5 287
1889286N20118 1889 32 WP MM NOT_NAMED 1889-10-15 09:00:00 NR 21.6190 115.490 main 118 98 __________P___ -1 21.6190 115.490 4 5 291
1889286N20118 1889 32 WP MM NOT_NAMED 1889-10-15 12:00:00 NR 21.7139 115.263 main 98 80 __________P___ -1 21.7139 115.263 4 5 299
1889286N20118 1889 32 WP MM NOT_NAMED 1889-10-15 15:00:00 NR 21.8453 115.060 main 80 67 __________P___ -1 21.8453 115.060 4 5 307
1889286N20118 1889 32 WP MM NOT_NAMED 1889-10-15 16:00:00 NR 21.9000 115.000 main 67 55 __________O___ -1 21.9000 115.000 4 5 317
1889286N20118 1889 32 WP MM NOT_NAMED 1889-10-15 18:00:00 NR 22.0297 114.876 main 55 24 __________P___ -1 22.0297 114.876 4 5 324
1889286N20118 1889 32 WP MM NOT_NAMED 1889-10-15 21:00:00 NR 22.2622 114.714 main 24 0 __________P___ -1 22.2622 114.714 4 6 332
1889286N20118 1889 32 WP MM NOT_NAMED 1889-10-16 00:00:00 NR 22.5261 114.590 main 0 0 __________P___ -1 22.5261 114.590 4 6 341
1889286N20118 1889 32 WP MM NOT_NAMED 1889-10-16 03:00:00 NR 22.8059 114.513 main 0 0 __________P___ -1 22.8059 114.513 4 6 349
1889286N20118 1889 32 WP MM NOT_NAMED 1889-10-16 04:00:00 NR 22.9000 114.500 main 0 0 __________O___ -1 22.9000 114.500 4 6 352
1889286N20118 1889 32 WP MM NOT_NAMED 1889-10-16 06:00:00 NR 23.0801 114.478 main 0 0 __________P___ -1 23.0801 114.478 4 6 0
1889286N20118 1889 32 WP MM NOT_NAMED 1889-10-16 09:00:00 NR 23.3568 114.488 main 0 0 __________P___ -1 23.3568 114.488 4 6 7
1889286N20118 1889 32 WP MM NOT_NAMED 1889-10-16 12:00:00 NR 23.6356 114.548 main 0 0 __________P___ -1 23.6356 114.548 4 6 16
1889286N20118 1889 32 WP MM NOT_NAMED 1889-10-16 15:00:00 NR 23.9104 114.655 main 0 0 __________P___ -1 23.9104 114.655 4 6 21
1889286N20118 1889 32 WP MM NOT_NAMED 1889-10-16 16:00:00 NR 24.0000 114.700 main 0 0 __________O___ -1 24.0000 114.700 4 6 28
1889286N20118 1889 32 WP MM NOT_NAMED 1889-10-16 18:00:00 NR 24.1753 114.804 main 0 0 __________P___ -1 24.1753 114.804 4 6 31
1889286N20118 1889 32 WP MM NOT_NAMED 1889-10-16 21:00:00 NR 24.4299 114.989 main 0 0 __________P___ -1 24.4299 114.989 4 6 36
1889286N20118 1889 32 WP MM NOT_NAMED 1889-10-17 00:00:00 NR 24.6769 115.199 main 0 0 __________P___ -1 24.6769 115.199 4 6 39
1889286N20118 1889 32 WP MM NOT_NAMED 1889-10-17 03:00:00 NR 24.9196 115.424 main 0 0 __________P___ -1 24.9196 115.424 4 6 40
1889286N20118 1889 32 WP MM NOT_NAMED 1889-10-17 04:00:00 NR 25.0000 115.500 main 0 __________O___ -1 25.0000 115.500 4 6 40

Digital Typhoon Data and Search

About IBTrACS Database

This database is a web-friendly format of International Best Track Archive for Climate Stewardship (IBTrACS), a global best track data archive curated by NOAA dating back to 1842.

Updated: 2021-12-06